createdAt,value
2023-01-08T00:01:09.609Z,2.55
2023-01-08T00:03:37.613Z,2.71
2023-01-08T00:09:01.973Z,2.54
2023-01-08T00:11:28.658Z,2.33
2023-01-08T00:13:55.299Z,2.47
2023-01-08T00:16:22.028Z,2.73
2023-01-08T00:18:48.814Z,2.37
2023-01-08T00:21:15.453Z,2.34
2023-01-08T00:23:42.249Z,2.53
2023-01-08T00:26:10.599Z,2.36
2023-01-08T00:28:38.465Z,2.20
2023-01-08T00:31:06.591Z,2.29
2023-01-08T00:33:33.633Z,2.28
2023-01-08T00:36:01.031Z,2.25
2023-01-08T00:38:28.987Z,2.30
2023-01-08T00:40:55.938Z,2.43
2023-01-08T00:43:22.591Z,2.46
2023-01-08T00:45:53.851Z,2.34
2023-01-08T00:48:22.477Z,2.36
2023-01-08T00:50:50.185Z,2.39
2023-01-08T00:53:17.285Z,2.31
2023-01-08T00:55:43.967Z,2.36
2023-01-08T00:58:11.777Z,2.32
2023-01-08T01:00:38.606Z,2.20
2023-01-08T01:03:05.693Z,2.03
2023-01-08T01:05:32.441Z,1.97
2023-01-08T01:07:59.127Z,1.96
2023-01-08T01:10:25.839Z,1.80
2023-01-08T01:12:52.500Z,1.85
2023-01-08T01:15:19.422Z,2.04
2023-01-08T01:17:46.782Z,2.33
2023-01-08T01:20:16.109Z,2.37
2023-01-08T01:22:43.489Z,2.22
2023-01-08T01:25:10.220Z,2.07
2023-01-08T01:27:36.951Z,1.87
2023-01-08T01:30:05.002Z,1.73
2023-01-08T01:32:31.666Z,1.71
2023-01-08T01:34:58.313Z,1.81
2023-01-08T01:37:25.093Z,1.72
2023-01-08T01:39:51.713Z,1.73
2023-01-08T01:42:38.455Z,1.79
2023-01-08T01:45:18.851Z,1.86
2023-01-08T01:48:02.340Z,1.70
2023-01-08T01:50:44.188Z,1.58
2023-01-08T01:53:22.932Z,1.90
2023-01-08T01:55:50.689Z,1.75
2023-01-08T01:58:20.710Z,1.70
2023-01-08T02:00:47.770Z,1.79
2023-01-08T02:03:15.915Z,1.53
2023-01-08T02:06:06.066Z,1.46
2023-01-08T02:08:38.483Z,1.43
2023-01-08T02:11:16.968Z,1.43
2023-01-08T02:13:54.245Z,1.20
2023-01-08T02:16:50.432Z,1.10
2023-01-08T02:19:25.331Z,0.73
2023-01-08T02:22:13.309Z,0.85
2023-01-08T02:25:10.616Z,0.77
2023-01-08T02:27:41.478Z,0.67
2023-01-08T02:30:09.261Z,0.76
2023-01-08T02:32:42.011Z,0.99
2023-01-08T02:35:10.830Z,0.98
2023-01-08T02:37:38.348Z,0.92
2023-01-08T02:40:07.991Z,1.08
2023-01-08T02:42:59.261Z,0.83
2023-01-08T02:45:48.386Z,0.85
2023-01-08T02:48:30.008Z,0.85
2023-01-08T02:51:18.179Z,0.65
2023-01-08T02:53:51.517Z,0.55
2023-01-08T02:56:22.451Z,0.73
2023-01-08T02:58:52.439Z,0.74
2023-01-08T03:01:22.393Z,0.52
2023-01-08T03:04:08.309Z,0.45
2023-01-08T03:06:35.140Z,0.35
2023-01-08T03:09:02.065Z,0.21
2023-01-08T03:11:36.837Z,0.23
2023-01-08T03:14:25.641Z,0.39
2023-01-08T03:20:14.140Z,0.60
2023-01-08T03:22:45.229Z,0.58
2023-01-08T03:25:14.573Z,0.48
2023-01-08T03:27:46.012Z,0.39
2023-01-08T03:30:15.779Z,0.61
2023-01-08T03:32:44.746Z,0.72
2023-01-08T03:35:16.753Z,0.77
2023-01-08T03:37:49.347Z,0.73
2023-01-08T03:40:29.427Z,0.86
2023-01-08T03:42:57.905Z,0.49
2023-01-08T03:45:27.486Z,0.27
2023-01-08T03:47:55.625Z,0.38
2023-01-08T03:50:25.888Z,0.62
2023-01-08T03:52:52.668Z,0.73
2023-01-08T03:55:19.406Z,0.69
2023-01-08T03:57:46.097Z,0.37
2023-01-08T04:00:13.401Z,0.40
2023-01-08T04:02:42.168Z,0.26
2023-01-08T04:05:09.771Z,0.32
2023-01-08T04:07:36.401Z,0.45
2023-01-08T04:10:03.542Z,0.53
2023-01-08T04:12:30.205Z,0.46
2023-01-08T04:14:56.836Z,0.56
2023-01-08T04:17:23.567Z,0.56
2023-01-08T04:19:50.225Z,0.54
2023-01-08T04:22:16.881Z,0.39
2023-01-08T04:24:43.551Z,0.31
2023-01-08T04:27:10.222Z,0.10
2023-01-08T04:29:36.866Z,-0.03
2023-01-08T04:32:03.680Z,-0.03
2023-01-08T04:34:30.357Z,0.01
2023-01-08T04:36:56.999Z,-0.07
2023-01-08T04:39:23.730Z,-0.17
2023-01-08T04:41:50.394Z,-0.04
2023-01-08T04:44:17.117Z,0.22
2023-01-08T04:46:43.855Z,0.02
2023-01-08T04:49:11.689Z,0.21
2023-01-08T04:51:38.352Z,0.20
2023-01-08T04:54:05.105Z,0.22
2023-01-08T04:56:31.861Z,0.21
2023-01-08T04:58:58.977Z,0.27
2023-01-08T05:01:27.540Z,0.37
2023-01-08T05:03:56.433Z,0.38
2023-01-08T05:06:23.575Z,0.37
2023-01-08T05:08:50.358Z,0.39
2023-01-08T05:11:17.106Z,0.41
2023-01-08T05:13:44.055Z,0.46
2023-01-08T05:16:10.923Z,0.29
2023-01-08T05:18:37.688Z,0.56
2023-01-08T05:21:05.265Z,0.82
2023-01-08T05:23:33.658Z,0.74
2023-01-08T05:26:01.901Z,0.92
2023-01-08T05:28:29.087Z,0.63
2023-01-08T05:30:56.203Z,0.59
2023-01-08T05:33:23.292Z,0.41
2023-01-08T05:35:49.963Z,0.50
2023-01-08T05:38:16.645Z,0.69
2023-01-08T05:40:43.280Z,0.74
2023-01-08T05:43:09.912Z,0.86
2023-01-08T05:45:36.625Z,0.77
2023-01-08T05:48:07.471Z,0.75
2023-01-08T05:50:34.833Z,0.89
2023-01-08T05:53:01.687Z,0.87
2023-01-08T05:55:28.327Z,0.94
2023-01-08T05:57:55.065Z,0.93
2023-01-08T06:00:21.905Z,0.97
2023-01-08T06:02:48.967Z,0.90
2023-01-08T06:05:15.856Z,0.98
2023-01-08T06:07:42.500Z,0.90
2023-01-08T06:10:09.649Z,0.73
2023-01-08T06:12:36.480Z,0.74
2023-01-08T06:15:04.447Z,0.70
2023-01-08T06:17:31.142Z,0.53
2023-01-08T06:19:57.941Z,0.35
2023-01-08T06:22:24.670Z,0.47
2023-01-08T06:24:51.287Z,0.76
2023-01-08T06:27:18.506Z,0.48
2023-01-08T06:29:45.217Z,0.18
2023-01-08T06:32:11.935Z,0.16
2023-01-08T06:34:38.607Z,-0.14
2023-01-08T06:37:05.299Z,-0.15
2023-01-08T06:39:32.007Z,-0.13
2023-01-08T06:41:58.692Z,-0.38
2023-01-08T06:44:25.619Z,-0.35
2023-01-08T06:46:52.380Z,-0.51
2023-01-08T06:49:19.926Z,-0.47
2023-01-08T06:51:46.663Z,-0.43
2023-01-08T06:54:13.746Z,-0.26
2023-01-08T06:56:53.067Z,-0.20
2023-01-08T06:59:20.268Z,-0.09
2023-01-08T07:01:47.041Z,0.54
2023-01-08T07:04:13.805Z,0.84
2023-01-08T07:06:40.482Z,1.12
2023-01-08T07:09:07.208Z,1.07
2023-01-08T07:11:34.229Z,1.79
2023-01-08T07:14:00.880Z,2.25
2023-01-08T07:16:27.819Z,2.84
2023-01-08T07:18:54.556Z,3.94
2023-01-08T07:21:22.659Z,4.58
2023-01-08T07:23:50.724Z,4.81
2023-01-08T07:26:17.841Z,4.85
2023-01-08T07:28:44.893Z,5.66
2023-01-08T07:31:11.613Z,5.59
2023-01-08T07:33:38.432Z,5.38
2023-01-08T07:36:05.789Z,5.32
2023-01-08T07:38:32.589Z,5.79
2023-01-08T07:40:59.367Z,5.32
2023-01-08T07:43:26.550Z,5.76
2023-01-08T07:45:53.249Z,7.06
2023-01-08T07:48:20.351Z,6.42
2023-01-08T07:50:47.061Z,5.65
2023-01-08T07:53:17.029Z,5.61
2023-01-08T07:55:43.971Z,6.01
2023-01-08T07:58:14.796Z,6.56
2023-01-08T08:00:41.868Z,5.96
2023-01-08T08:03:11.843Z,6.97
2023-01-08T08:05:39.196Z,7.71
2023-01-08T08:08:10.641Z,7.86
2023-01-08T08:10:38.392Z,8.24
2023-01-08T08:13:05.373Z,8.54
2023-01-08T08:15:33.371Z,7.70
2023-01-08T08:18:00.085Z,7.49
2023-01-08T08:20:27.281Z,7.99
2023-01-08T08:23:07.649Z,7.80
2023-01-08T08:25:35.064Z,8.46
2023-01-08T08:28:03.093Z,8.45
2023-01-08T08:30:31.347Z,8.10
2023-01-08T08:33:02.021Z,8.96
2023-01-08T08:35:29.668Z,9.42
2023-01-08T08:37:57.012Z,9.02
2023-01-08T08:40:24.829Z,7.93
2023-01-08T08:42:59.193Z,8.63
2023-01-08T08:45:26.903Z,8.58
2023-01-08T08:47:53.809Z,9.52
2023-01-08T08:50:21.136Z,10.23
2023-01-08T08:52:49.069Z,10.36
2023-01-08T08:55:17.552Z,10.60
2023-01-08T08:57:46.023Z,11.19
2023-01-08T09:00:14.317Z,11.40
2023-01-08T09:02:41.434Z,11.46
2023-01-08T09:05:08.627Z,11.82
2023-01-08T09:07:35.525Z,11.15
2023-01-08T09:10:02.469Z,11.21
2023-01-08T09:12:29.121Z,11.65
2023-01-08T09:14:57.331Z,12.08
2023-01-08T09:17:25.999Z,12.04
2023-01-08T09:19:53.101Z,10.76
2023-01-08T09:22:20.329Z,10.61
2023-01-08T09:24:47.136Z,11.25
2023-01-08T09:27:14.576Z,12.01
2023-01-08T09:29:41.593Z,12.04
2023-01-08T09:32:09.127Z,11.95
2023-01-08T09:34:38.794Z,11.88
2023-01-08T09:37:06.195Z,12.35
2023-01-08T09:39:33.837Z,12.87
2023-01-08T09:42:05.581Z,12.85
2023-01-08T09:44:38.160Z,11.23
2023-01-08T09:47:07.597Z,10.89
2023-01-08T09:49:45.815Z,10.99
2023-01-08T09:52:14.583Z,11.99
2023-01-08T09:54:42.134Z,11.60
2023-01-08T09:57:19.479Z,12.32
2023-01-08T09:59:48.364Z,12.76
2023-01-08T10:02:21.484Z,12.12
2023-01-08T10:04:58.567Z,12.52
2023-01-08T10:07:28.434Z,13.44
2023-01-08T10:09:56.040Z,13.70
2023-01-08T10:12:30.556Z,14.01
2023-01-08T10:15:03.246Z,13.22
2023-01-08T10:17:41.727Z,13.35
2023-01-08T10:20:14.128Z,13.59
2023-01-08T10:22:41.626Z,13.33
2023-01-08T10:25:14.980Z,14.28
2023-01-08T10:27:47.411Z,14.21
2023-01-08T10:30:19.913Z,14.56
2023-01-08T10:32:55.774Z,14.58
2023-01-08T10:35:34.084Z,14.82
2023-01-08T10:38:01.995Z,14.23
2023-01-08T10:40:38.553Z,13.78
2023-01-08T10:43:15.093Z,13.24
2023-01-08T10:45:43.024Z,13.89
2023-01-08T10:48:17.717Z,13.21
2023-01-08T10:50:44.497Z,13.06
2023-01-08T10:53:28.168Z,13.02
2023-01-08T10:56:03.544Z,13.56
2023-01-08T10:58:40.597Z,14.24
2023-01-08T11:01:26.681Z,13.47
2023-01-08T11:03:57.217Z,13.84
2023-01-08T11:06:27.726Z,14.35
2023-01-08T11:09:03.445Z,14.75
2023-01-08T11:11:38.007Z,14.35
2023-01-08T11:14:26.913Z,13.70
2023-01-08T11:16:54.869Z,13.65
2023-01-08T11:19:27.914Z,14.61
2023-01-08T11:22:02.719Z,14.60
2023-01-08T11:24:33.039Z,14.66
2023-01-08T11:27:41.283Z,14.07
2023-01-08T11:30:19.488Z,14.30
2023-01-08T11:32:53.041Z,14.16
2023-01-08T11:35:36.243Z,14.68
2023-01-08T11:38:03.356Z,15.38
2023-01-08T11:40:48.494Z,14.56
2023-01-08T11:43:50.288Z,15.48
2023-01-08T11:46:32.228Z,16.20
2023-01-08T11:49:13.846Z,15.71
2023-01-08T11:51:44.967Z,15.61
2023-01-08T11:54:26.531Z,15.25
2023-01-08T11:56:59.798Z,14.53
2023-01-08T11:59:47.033Z,14.68
2023-01-08T12:02:51.247Z,14.74
2023-01-08T12:06:00.577Z,15.00
2023-01-08T12:08:51.077Z,14.39
2023-01-08T12:11:30.732Z,13.84
2023-01-08T12:14:03.107Z,14.82
2023-01-08T12:16:47.987Z,15.30
2023-01-08T12:19:27.391Z,14.57
2023-01-08T12:22:20.146Z,14.82
2023-01-08T12:24:49.605Z,14.35
2023-01-08T12:27:19.483Z,14.33
2023-01-08T12:30:19.022Z,14.73
2023-01-08T12:32:54.921Z,14.94
2023-01-08T12:35:32.673Z,15.32
2023-01-08T12:38:09.751Z,15.70
2023-01-08T12:40:41.761Z,15.09
2023-01-08T12:43:14.876Z,14.57
2023-01-08T12:45:46.484Z,14.88
2023-01-08T12:48:27.018Z,14.96
2023-01-08T12:51:19.328Z,14.82
2023-01-08T12:54:02.660Z,14.95
2023-01-08T12:56:33.639Z,14.32
2023-01-08T12:59:29.205Z,14.25
2023-01-08T13:02:31.249Z,14.56
2023-01-08T13:04:58.273Z,14.44
2023-01-08T13:07:30.559Z,13.39
2023-01-08T13:10:05.309Z,13.16
2023-01-08T13:12:36.527Z,12.79
2023-01-08T13:15:04.605Z,12.99
2023-01-08T13:17:31.384Z,13.00
2023-01-08T13:20:04.412Z,12.96
2023-01-08T13:22:33.856Z,13.07
2023-01-08T13:25:15.801Z,12.91
2023-01-08T13:27:43.171Z,12.58
2023-01-08T13:30:38.310Z,12.43
2023-01-08T13:33:34.235Z,12.24
2023-01-08T13:36:13.102Z,12.28
2023-01-08T13:38:41.212Z,12.21
2023-01-08T13:41:34.507Z,12.18
2023-01-08T13:44:07.116Z,12.10
2023-01-08T13:46:38.132Z,12.16
2023-01-08T13:49:08.306Z,12.13
2023-01-08T13:51:46.514Z,12.07
2023-01-08T13:54:13.178Z,12.01
2023-01-08T13:56:45.537Z,12.19
2023-01-08T13:59:34.060Z,12.04
2023-01-08T14:02:01.772Z,12.06
2023-01-08T14:04:28.655Z,12.21
2023-01-08T14:07:13.322Z,12.14
2023-01-08T14:09:39.957Z,12.21
2023-01-08T14:12:10.208Z,12.06
2023-01-08T14:14:39.136Z,12.02
2023-01-08T14:17:07.066Z,12.08
2023-01-08T14:19:33.977Z,12.16
2023-01-08T14:22:04.033Z,12.20
2023-01-08T14:24:30.693Z,12.36
2023-01-08T14:27:03.072Z,12.16
2023-01-08T14:29:34.859Z,11.93
2023-01-08T14:32:01.810Z,11.92
2023-01-08T14:34:31.961Z,12.32
2023-01-08T14:36:58.940Z,12.24
2023-01-08T14:39:32.198Z,12.24
2023-01-08T14:42:24.945Z,12.28
2023-01-08T14:44:57.083Z,11.89
2023-01-08T14:47:29.285Z,11.79
2023-01-08T14:49:56.680Z,11.77
2023-01-08T14:52:23.486Z,11.59
2023-01-08T14:54:56.331Z,11.40
2023-01-08T14:57:24.341Z,11.44
2023-01-08T14:59:56.929Z,11.30
2023-01-08T15:02:33.578Z,11.41
2023-01-08T15:05:18.737Z,11.60
2023-01-08T15:07:55.823Z,11.43
2023-01-08T15:10:35.331Z,11.20
2023-01-08T15:13:04.036Z,11.35
2023-01-08T15:15:33.022Z,11.08
2023-01-08T15:18:00.039Z,11.23
2023-01-08T15:20:32.086Z,11.20
2023-01-08T15:22:59.757Z,10.99
2023-01-08T15:25:28.696Z,10.92
2023-01-08T15:28:03.213Z,11.02
2023-01-08T15:30:45.518Z,10.59
2023-01-08T15:33:22.913Z,10.75
2023-01-08T15:35:50.488Z,10.60
2023-01-08T15:38:20.876Z,10.45
2023-01-08T15:40:48.545Z,10.48
2023-01-08T15:43:16.898Z,10.66
2023-01-08T15:45:46.426Z,10.51
2023-01-08T15:48:13.517Z,10.66
2023-01-08T15:50:43.171Z,10.42
2023-01-08T15:53:24.977Z,10.00
2023-01-08T15:55:51.937Z,10.05
2023-01-08T15:58:18.764Z,10.09
2023-01-08T16:00:46.713Z,9.83
2023-01-08T16:03:14.848Z,9.87
2023-01-08T16:05:41.818Z,9.73
2023-01-08T16:08:08.681Z,9.82
2023-01-08T16:10:35.341Z,9.85
2023-01-08T16:13:02.213Z,9.84
2023-01-08T16:15:30.997Z,9.19
2023-01-08T16:17:59.220Z,9.53
2023-01-08T16:20:26.181Z,9.44
2023-01-08T16:22:54.791Z,9.28
2023-01-08T16:25:21.486Z,9.31
2023-01-08T16:27:48.127Z,9.16
2023-01-08T16:30:15.611Z,8.53
2023-01-08T16:32:43.047Z,8.78
2023-01-08T16:35:10.999Z,8.82
2023-01-08T16:37:38.173Z,8.56
2023-01-08T16:40:05.429Z,8.61
2023-01-08T16:42:32.244Z,8.72
2023-01-08T16:44:59.018Z,8.43
2023-01-08T16:47:25.689Z,8.58
2023-01-08T16:49:52.666Z,8.50
2023-01-08T16:52:19.338Z,8.32
2023-01-08T16:54:46.537Z,8.34
2023-01-08T16:57:13.641Z,8.56
2023-01-08T16:59:40.587Z,8.60
2023-01-08T17:02:07.415Z,8.59
2023-01-08T17:04:34.204Z,8.33
2023-01-08T17:07:02.958Z,7.91
2023-01-08T17:09:29.948Z,7.62
2023-01-08T17:11:56.600Z,7.56
2023-01-08T17:14:23.400Z,7.23
2023-01-08T17:16:50.059Z,6.92
2023-01-08T17:19:17.617Z,7.03
2023-01-08T17:21:46.061Z,7.12
2023-01-08T17:24:13.260Z,7.16
2023-01-08T17:26:40.131Z,7.19
2023-01-08T17:29:06.977Z,7.32
2023-01-08T17:31:40.307Z,6.92
2023-01-08T17:34:11.421Z,6.81
2023-01-08T17:36:38.688Z,6.83
2023-01-08T17:39:05.613Z,6.72
2023-01-08T17:41:51.233Z,6.48
2023-01-08T17:44:18.000Z,6.62
2023-01-08T17:46:45.458Z,6.60
2023-01-08T17:49:14.699Z,6.45
2023-01-08T17:51:44.164Z,6.40
2023-01-08T17:54:12.640Z,6.25
2023-01-08T17:56:39.432Z,6.30
2023-01-08T17:59:06.646Z,5.96
2023-01-08T18:01:35.070Z,5.66
2023-01-08T18:04:02.193Z,5.47
2023-01-08T18:06:29.235Z,5.44
2023-01-08T18:08:55.986Z,4.99
2023-01-08T18:11:25.370Z,5.04
2023-01-08T18:14:00.602Z,4.62
2023-01-08T18:16:28.196Z,4.75
2023-01-08T18:18:58.488Z,4.70
2023-01-08T18:21:26.572Z,4.84
2023-01-08T18:23:53.454Z,4.78
2023-01-08T18:26:20.899Z,4.97
2023-01-08T18:28:48.417Z,4.87
2023-01-08T18:31:15.686Z,4.80
2023-01-08T18:33:42.459Z,4.56
2023-01-08T18:36:11.815Z,4.35
2023-01-08T18:38:40.729Z,4.35
2023-01-08T18:41:08.281Z,4.28
2023-01-08T18:43:36.053Z,4.21
2023-01-08T18:46:07.472Z,4.33
2023-01-08T18:48:35.673Z,4.27
2023-01-08T18:51:05.679Z,4.18
2023-01-08T18:53:33.397Z,4.27
2023-01-08T18:56:03.571Z,4.22
2023-01-08T18:58:30.416Z,4.01
2023-01-08T19:01:04.176Z,4.11
2023-01-08T19:03:30.883Z,4.06
2023-01-08T19:05:57.545Z,3.75
2023-01-08T19:08:24.858Z,3.72
2023-01-08T19:10:51.903Z,3.68
2023-01-08T19:13:19.326Z,3.54
2023-01-08T19:15:46.763Z,3.24
2023-01-08T19:18:14.000Z,3.25
2023-01-08T19:20:46.245Z,3.33
2023-01-08T19:23:13.858Z,3.20
2023-01-08T19:25:40.729Z,3.44
2023-01-08T19:28:07.564Z,3.33
2023-01-08T19:30:34.733Z,3.26
2023-01-08T19:33:01.604Z,3.36
2023-01-08T19:35:28.960Z,3.35
2023-01-08T19:37:55.875Z,2.98
2023-01-08T19:40:22.681Z,3.10
2023-01-08T19:43:08.061Z,3.28
2023-01-08T19:45:37.586Z,3.14
2023-01-08T19:48:04.457Z,3.25
2023-01-08T19:50:32.161Z,3.26
2023-01-08T19:52:58.917Z,3.33
2023-01-08T19:55:25.945Z,3.39
2023-01-08T19:57:54.551Z,3.55
2023-01-08T20:00:24.115Z,3.65
2023-01-08T20:02:51.748Z,3.78
2023-01-08T20:05:18.672Z,3.71
2023-01-08T20:07:45.574Z,3.76
2023-01-08T20:10:13.555Z,3.76
2023-01-08T20:12:40.241Z,3.76
2023-01-08T20:15:07.557Z,3.72
2023-01-08T20:17:34.255Z,3.95
2023-01-08T20:20:00.900Z,4.11
2023-01-08T20:22:29.139Z,4.03
2023-01-08T20:24:57.688Z,3.99
2023-01-08T20:27:25.150Z,3.94
2023-01-08T20:29:51.792Z,4.18
2023-01-08T20:32:20.430Z,4.20
2023-01-08T20:34:48.778Z,4.07
2023-01-08T20:37:15.430Z,4.13
2023-01-08T20:39:42.085Z,4.13
2023-01-08T20:42:10.125Z,4.20
2023-01-08T20:44:36.947Z,4.22
2023-01-08T20:47:03.860Z,4.30
2023-01-08T20:49:30.807Z,4.32
2023-01-08T20:51:59.808Z,4.44
2023-01-08T20:54:28.227Z,4.40
2023-01-08T20:56:56.323Z,4.42
2023-01-08T20:59:26.817Z,4.46
2023-01-08T21:01:53.672Z,4.55
2023-01-08T21:04:20.462Z,4.61
2023-01-08T21:06:47.139Z,4.69
2023-01-08T21:09:16.214Z,4.64
2023-01-08T21:11:42.921Z,4.56
2023-01-08T21:14:10.523Z,4.58
2023-01-08T21:16:39.711Z,4.56
2023-01-08T21:19:09.767Z,4.37
2023-01-08T21:21:39.981Z,4.33
2023-01-08T21:24:09.128Z,4.32
2023-01-08T21:26:39.836Z,4.34
2023-01-08T21:29:07.905Z,4.38
2023-01-08T21:31:35.442Z,4.55
2023-01-08T21:34:03.413Z,4.51
2023-01-08T21:36:31.845Z,4.55
2023-01-08T21:39:00.607Z,4.51
2023-01-08T21:41:47.192Z,4.57
2023-01-08T21:44:40.297Z,4.49
2023-01-08T21:47:16.662Z,4.55
2023-01-08T21:49:45.242Z,4.54
2023-01-08T21:52:30.453Z,4.49
2023-01-08T21:54:58.317Z,4.55
2023-01-08T21:57:27.804Z,4.59
2023-01-08T21:59:55.361Z,4.56
2023-01-08T22:02:24.266Z,4.56
2023-01-08T22:04:54.314Z,4.65
2023-01-08T22:07:21.202Z,4.76
2023-01-08T22:09:47.850Z,4.60
2023-01-08T22:12:16.134Z,4.48
2023-01-08T22:14:43.031Z,4.47
2023-01-08T22:17:10.832Z,4.61
2023-01-08T22:19:39.153Z,4.70
2023-01-08T22:22:08.176Z,4.97
2023-01-08T22:24:36.240Z,4.87
2023-01-08T22:27:02.944Z,4.87
2023-01-08T22:29:29.576Z,4.86
2023-01-08T22:31:56.292Z,4.88
2023-01-08T22:34:23.057Z,4.84
2023-01-08T22:36:51.159Z,4.90
2023-01-08T22:39:18.365Z,4.85
2023-01-08T22:41:45.441Z,4.81
2023-01-08T22:44:12.475Z,4.71
2023-01-08T22:46:39.109Z,4.72
2023-01-08T22:49:05.929Z,4.65
2023-01-08T22:51:32.682Z,4.69
2023-01-08T22:53:59.673Z,4.62
2023-01-08T22:56:26.715Z,4.63
2023-01-08T22:58:53.828Z,4.65
2023-01-08T23:01:27.508Z,4.61
2023-01-08T23:03:56.875Z,4.55
2023-01-08T23:06:26.073Z,4.83
2023-01-08T23:08:53.432Z,4.64
2023-01-08T23:11:22.011Z,4.80
2023-01-08T23:13:49.368Z,4.81
2023-01-08T23:16:17.752Z,4.75
2023-01-08T23:18:44.869Z,4.67
2023-01-08T23:21:17.421Z,4.67
2023-01-08T23:23:45.005Z,4.72
2023-01-08T23:26:26.359Z,4.92
2023-01-08T23:28:54.040Z,4.89
2023-01-08T23:31:27.413Z,4.59
2023-01-08T23:33:54.828Z,4.67
2023-01-08T23:36:22.232Z,4.62
2023-01-08T23:38:51.271Z,4.72
2023-01-08T23:41:18.991Z,4.59
2023-01-08T23:43:46.353Z,4.53
2023-01-08T23:46:13.866Z,4.46
2023-01-08T23:48:41.064Z,4.45
2023-01-08T23:51:07.915Z,4.39
2023-01-08T23:53:34.725Z,4.45
2023-01-08T23:56:01.476Z,4.36
2023-01-08T23:58:28.124Z,4.42
